Time;durP1;ratioP1;P1;durP2;ratioP2;P2;SDS_P1;SDS_P2;PMS_P1;PMS_P2;Temp;Humidity;BMP_temperature;BMP_pressure;BME280_temperature;BME280_humidity;BME280_pressure;Samples;Min_cycle;Max_cycle;Signal;HPM_P1;HPM_P2
2023/04/15 00:01:24;;;;;;;8.80;4.00;;;11.40;71.70;;;;;;5114741;28;20016;-74
2023/04/15 00:03:53;;;;;;;7.65;4.13;;;11.30;71.50;;;;;;5115458;28;20016;-73
2023/04/15 00:06:19;;;;;;;6.35;4.05;;;11.30;71.30;;;;;;5114427;28;20012;-73
2023/04/15 00:08:45;;;;;;;5.40;3.80;;;11.30;71.40;;;;;;5114276;28;20426;-73
2023/04/15 00:11:11;;;;;;;8.80;3.95;;;11.20;71.20;;;;;;5115276;28;20020;-73
2023/04/15 00:13:38;;;;;;;7.22;3.90;;;11.20;71.30;;;;;;5115293;28;20491;-73
2023/04/15 00:16:05;;;;;;;9.07;4.15;;;11.20;71.70;;;;;;5114274;28;20024;-73
2023/04/15 00:18:31;;;;;;;7.38;4.18;;;11.20;71.90;;;;;;5114216;28;20017;-73
2023/04/15 00:20:57;;;;;;;7.55;4.03;;;11.20;72.00;;;;;;5115113;28;20039;-73
2023/04/15 00:23:22;;;;;;;6.30;3.83;;;11.20;72.10;;;;;;5115059;28;20061;-73
2023/04/15 00:25:48;;;;;;;7.35;4.35;;;11.20;72.20;;;;;;5114275;28;20032;-74
2023/04/15 00:28:14;;;;;;;6.63;4.15;;;11.10;72.30;;;;;;5114977;28;20021;-73
2023/04/15 00:30:40;;;;;;;9.18;4.43;;;11.10;72.20;;;;;;5114109;28;20032;-73
2023/04/15 00:33:06;;;;;;;5.97;3.83;;;11.10;72.00;;;;;;5114714;28;20020;-73
2023/04/15 00:35:32;;;;;;;8.77;4.18;;;11.10;72.00;;;;;;5113942;28;20016;-74
2023/04/15 00:37:58;;;;;;;8.27;4.45;;;11.10;72.00;;;;;;5114799;28;20020;-73
2023/04/15 00:40:25;;;;;;;9.68;4.68;;;11.00;72.20;;;;;;5114730;28;20013;-73
2023/04/15 00:42:51;;;;;;;6.00;4.35;;;11.00;72.50;;;;;;5114737;28;20037;-73
2023/04/15 00:45:17;;;;;;;10.80;4.35;;;11.00;72.50;;;;;;5114616;28;20031;-73
2023/04/15 00:47:43;;;;;;;6.40;4.15;;;11.00;72.50;;;;;;5114630;28;20021;-73
2023/04/15 00:50:11;;;;;;;7.50;4.40;;;10.90;72.20;;;;;;5114282;28;20082;-74
2023/04/15 00:52:37;;;;;;;8.80;4.15;;;10.90;72.50;;;;;;5114457;28;20057;-73
2023/04/15 00:55:04;;;;;;;7.30;4.85;;;10.90;72.90;;;;;;5114453;28;20425;-73
2023/04/15 00:57:30;;;;;;;9.75;4.53;;;10.90;73.00;;;;;;5114562;28;20050;-74
2023/04/15 00:59:56;;;;;;;6.68;4.55;;;10.90;73.00;;;;;;5113370;28;20024;-73
2023/04/15 01:02:22;;;;;;;8.18;4.35;;;10.80;73.00;;;;;;5114339;28;20035;-73
2023/04/15 01:04:49;;;;;;;8.25;5.20;;;10.80;73.10;;;;;;5113391;28;20034;-73
2023/04/15 01:07:15;;;;;;;9.07;5.03;;;10.80;73.40;;;;;;5114248;28;20095;-73
2023/04/15 01:09:41;;;;;;;11.02;5.28;;;10.80;73.70;;;;;;5113207;28;20036;-73
2023/04/15 01:12:09;;;;;;;9.23;4.93;;;10.70;73.60;;;;;;5114231;28;20036;-73
2023/04/15 01:14:35;;;;;;;8.30;4.28;;;10.70;73.50;;;;;;5114124;28;20020;-73
2023/04/15 01:17:01;;;;;;;8.02;4.13;;;10.70;73.60;;;;;;5114206;28;20021;-73
2023/04/15 01:19:27;;;;;;;6.28;4.38;;;10.60;73.40;;;;;;5114035;28;20020;-74
2023/04/15 01:21:53;;;;;;;6.07;4.32;;;10.60;73.30;;;;;;5114007;28;20016;-73
2023/04/15 01:24:18;;;;;;;7.50;4.38;;;10.50;73.50;;;;;;5113983;28;20048;-73
2023/04/15 01:26:45;;;;;;;8.38;4.65;;;10.50;73.40;;;;;;5114012;28;20024;-73
2023/04/15 01:29:11;;;;;;;7.60;4.55;;;10.50;73.30;;;;;;5112837;28;20032;-73
2023/04/15 01:31:36;;;;;;;7.38;4.50;;;10.50;73.90;;;;;;5112832;28;20047;-73
2023/04/15 01:34:02;;;;;;;6.20;4.30;;;10.50;74.10;;;;;;5113727;28;20024;-73
2023/04/15 01:36:28;;;;;;;8.35;4.22;;;10.50;73.90;;;;;;5079187;28;20043;-73
2023/04/15 01:38:55;;;;;;;8.18;4.20;;;10.40;73.80;;;;;;5113761;28;20008;-73
2023/04/15 01:41:26;;;;;;;6.97;3.92;;;10.40;74.00;;;;;;5113835;28;20012;-73
2023/04/15 01:43:52;;;;;;;7.03;4.30;;;10.40;73.90;;;;;;5113859;28;20035;-73
2023/04/15 01:46:17;;;;;;;7.93;4.05;;;10.30;74.10;;;;;;5113681;28;20079;-73
2023/04/15 01:48:43;;;;;;;9.35;5.03;;;10.20;74.30;;;;;;5113470;28;20040;-73
2023/04/15 01:51:09;;;;;;;6.97;4.40;;;10.20;74.50;;;;;;5113618;28;20024;-73
2023/04/15 01:53:34;;;;;;;7.63;3.80;;;10.20;74.60;;;;;;5112502;28;20036;-73
2023/04/15 01:56:00;;;;;;;10.75;5.05;;;10.20;75.10;;;;;;5113545;28;20020;-73
2023/04/15 01:58:26;;;;;;;9.85;4.75;;;10.20;75.10;;;;;;5112460;28;20039;-73
2023/04/15 02:00:51;;;;;;;7.88;4.82;;;10.10;75.10;;;;;;5112587;28;20012;-73
2023/04/15 02:03:17;;;;;;;8.30;5.10;;;10.00;75.50;;;;;;5113431;28;20028;-73
2023/04/15 02:05:43;;;;;;;9.85;4.78;;;10.00;75.80;;;;;;5112407;28;20095;-73
2023/04/15 02:08:09;;;;;;;11.98;4.70;;;10.10;76.70;;;;;;5113394;28;20024;-73
2023/04/15 02:10:34;;;;;;;7.75;4.45;;;10.10;75.90;;;;;;5113396;28;20036;-74
2023/04/15 02:13:00;;;;;;;8.32;4.68;;;10.10;75.90;;;;;;5113274;28;20032;-73
2023/04/15 02:15:26;;;;;;;8.10;4.28;;;10.10;76.00;;;;;;5113362;28;20082;-73
2023/04/15 02:17:54;;;;;;;8.80;4.90;;;10.10;76.10;;;;;;5112392;28;20020;-73
2023/04/15 02:20:21;;;;;;;6.63;4.32;;;10.10;76.20;;;;;;5113334;28;20032;-73
2023/04/15 02:22:47;;;;;;;8.93;4.95;;;10.10;76.30;;;;;;5113462;28;20039;-73
2023/04/15 02:25:13;;;;;;;9.63;4.40;;;10.00;76.50;;;;;;5115695;28;20039;-73
2023/04/15 02:27:39;;;;;;;8.20;4.47;;;10.00;76.40;;;;;;5116373;28;20032;-73
2023/04/15 02:30:08;;;;;;;7.93;4.80;;;10.00;76.10;;;;;;5116343;28;20047;-73
2023/04/15 02:32:33;;;;;;;10.75;5.07;;;10.00;76.10;;;;;;5117185;28;20036;-73
2023/04/15 02:35:07;;;;;;;11.38;5.45;;;10.00;76.10;;;;;;5116073;28;20028;-73
2023/04/15 02:37:39;;;;;;;6.63;4.63;;;9.90;76.40;;;;;;5117158;28;20016;-73
2023/04/15 02:40:08;;;;;;;7.22;4.75;;;9.90;76.60;;;;;;5117197;28;20016;-73
2023/04/15 02:42:33;;;;;;;9.00;5.07;;;9.90;76.70;;;;;;5117038;28;20385;-72
2023/04/15 02:44:59;;;;;;;8.52;4.90;;;9.90;76.90;;;;;;5116970;28;20054;-73
2023/04/15 02:47:25;;;;;;;9.13;4.88;;;9.90;76.90;;;;;;5116960;28;20028;-72
2023/04/15 02:49:51;;;;;;;8.02;4.80;;;9.80;76.80;;;;;;5116694;28;20060;-73
2023/04/15 02:52:17;;;;;;;10.57;4.95;;;9.80;77.00;;;;;;5115830;28;20032;-73
2023/04/15 02:54:42;;;;;;;10.52;5.18;;;9.80;77.40;;;;;;5116830;28;20027;-73
2023/04/15 02:57:09;;;;;;;9.45;5.55;;;9.70;77.30;;;;;;5116743;28;20047;-73
2023/04/15 02:59:35;;;;;;;9.55;5.32;;;9.70;77.50;;;;;;5116742;28;20024;-73
2023/04/15 03:02:00;;;;;;;9.00;5.28;;;9.70;77.60;;;;;;5116768;28;20036;-73
2023/04/15 03:04:28;;;;;;;8.90;4.88;;;9.70;77.70;;;;;;5115805;28;20035;-73
2023/04/15 03:06:55;;;;;;;9.45;5.20;;;9.70;77.70;;;;;;5116737;28;20020;-74
2023/04/15 03:09:20;;;;;;;10.98;4.90;;;9.70;77.70;;;;;;5116656;28;20039;-73
2023/04/15 03:11:46;;;;;;;7.93;5.10;;;9.70;77.80;;;;;;5115430;28;20036;-73
2023/04/15 03:14:11;;;;;;;8.15;4.88;;;9.70;77.70;;;;;;5098572;28;20092;-73
2023/04/15 03:16:37;;;;;;;8.25;4.95;;;9.70;78.00;;;;;;5116369;28;20028;-73
2023/04/15 03:19:02;;;;;;;7.55;4.93;;;9.60;78.30;;;;;;5116338;28;20039;-73
2023/04/15 03:21:28;;;;;;;8.32;4.57;;;9.60;78.20;;;;;;5115499;28;20024;-73
2023/04/15 03:23:55;;;;;;;9.10;4.85;;;9.60;78.10;;;;;;5115207;28;20032;-73
2023/04/15 03:26:29;;;;;;;8.32;5.28;;;9.60;78.20;;;;;;5116210;28;20016;-73
2023/04/15 03:28:55;;;;;;;10.02;4.75;;;9.50;78.40;;;;;;5116210;28;20032;-73
2023/04/15 03:31:21;;;;;;;8.88;5.55;;;9.40;78.50;;;;;;5116006;28;20024;-73
2023/04/15 03:33:47;;;;;;;8.35;5.07;;;9.40;78.80;;;;;;5115939;28;20071;-73
2023/04/15 03:36:12;;;;;;;8.73;5.05;;;9.40;78.90;;;;;;5114842;28;20096;-73
2023/04/15 03:38:38;;;;;;;10.73;5.28;;;9.40;79.20;;;;;;5115035;28;20020;-74
2023/04/15 03:41:04;;;;;;;9.10;5.18;;;9.40;79.30;;;;;;5115910;28;20035;-73
2023/04/15 03:43:30;;;;;;;7.30;4.78;;;9.40;79.30;;;;;;5115901;28;20020;-73
2023/04/15 03:45:55;;;;;;;8.90;4.85;;;9.40;79.50;;;;;;5115874;28;20020;-73
2023/04/15 03:48:21;;;;;;;8.43;5.22;;;9.40;79.60;;;;;;5115608;28;20058;-74
2023/04/15 03:50:47;;;;;;;7.25;4.75;;;9.30;79.70;;;;;;5115869;28;20032;-73
2023/04/15 03:53:12;;;;;;;8.75;4.80;;;9.30;79.80;;;;;;5115638;28;20035;-73
2023/04/15 03:55:38;;;;;;;10.02;5.18;;;9.30;79.90;;;;;;5114701;28;20024;-73
2023/04/15 03:58:04;;;;;;;8.40;5.18;;;9.20;80.10;;;;;;5115590;28;20027;-74
2023/04/15 04:00:30;;;;;;;9.20;5.32;;;9.20;80.30;;;;;;5115519;28;20020;-74
2023/04/15 04:02:55;;;;;;;9.27;4.72;;;9.10;80.60;;;;;;5115649;28;20032;-74
2023/04/15 04:05:21;;;;;;;10.88;4.88;;;9.10;80.90;;;;;;5114562;28;20032;-73
2023/04/15 04:07:47;;;;;;;11.35;5.32;;;9.20;81.00;;;;;;5114452;28;20028;-73
2023/04/15 04:10:12;;;;;;;10.23;5.00;;;9.20;81.10;;;;;;5097508;28;20032;-73
2023/04/15 04:12:38;;;;;;;10.15;5.13;;;9.10;80.90;;;;;;5114318;28;20028;-73
2023/04/15 04:15:04;;;;;;;9.38;5.00;;;9.20;81.20;;;;;;5115392;28;20032;-73
2023/04/15 04:17:30;;;;;;;10.90;5.68;;;9.10;81.10;;;;;;5115229;28;20040;-73
2023/04/15 04:19:56;;;;;;;7.80;5.28;;;9.20;81.20;;;;;;5115152;28;20035;-73
2023/04/15 04:22:23;;;;;;;10.35;5.75;;;9.10;81.40;;;;;;5115144;28;20458;-73
2023/04/15 04:24:49;;;;;;;9.15;5.38;;;9.10;81.40;;;;;;5114171;28;20087;-73
2023/04/15 04:27:15;;;;;;;8.90;5.05;;;9.10;81.70;;;;;;5115041;28;20035;-74
2023/04/15 04:29:41;;;;;;;10.77;5.35;;;9.10;81.90;;;;;;5114969;28;20028;-73
2023/04/15 04:32:06;;;;;;;8.68;5.00;;;9.00;81.90;;;;;;5113947;28;20104;-73
2023/04/15 04:34:32;;;;;;;11.38;5.90;;;9.00;82.30;;;;;;5114798;28;20468;-73
2023/04/15 04:36:57;;;;;;;9.52;5.38;;;9.00;82.20;;;;;;5114786;28;20032;-73
2023/04/15 04:39:23;;;;;;;9.32;5.20;;;9.00;82.20;;;;;;5114812;28;20024;-73
2023/04/15 04:41:51;;;;;;;9.27;4.97;;;8.90;82.70;;;;;;5113788;28;20036;-73
2023/04/15 04:44:16;;;;;;;10.23;5.13;;;8.90;82.60;;;;;;5114709;28;20024;-73
2023/04/15 04:46:42;;;;;;;7.90;5.75;;;8.90;82.70;;;;;;5113545;28;20028;-73
2023/04/15 04:49:08;;;;;;;10.50;5.72;;;8.90;82.70;;;;;;5114337;28;20063;-73
2023/04/15 04:51:34;;;;;;;12.15;5.18;;;8.90;82.80;;;;;;5114511;28;20036;-73
2023/04/15 04:53:59;;;;;;;8.75;5.60;;;8.90;82.70;;;;;;5114471;28;20024;-74
2023/04/15 04:56:25;;;;;;;10.93;5.20;;;8.90;82.60;;;;;;5113543;28;20084;-73
2023/04/15 04:58:51;;;;;;;7.75;4.88;;;9.00;82.60;;;;;;5113378;28;20021;-73
2023/04/15 05:01:17;;;;;;;8.43;5.45;;;9.00;82.60;;;;;;5114361;28;20020;-73
2023/04/15 05:03:43;;;;;;;9.02;5.15;;;9.00;82.60;;;;;;5114331;28;20050;-73
2023/04/15 05:06:08;;;;;;;9.52;5.25;;;9.00;82.60;;;;;;5114406;28;20043;-73
2023/04/15 05:08:34;;;;;;;8.65;5.13;;;8.90;82.60;;;;;;5114300;28;20020;-73
2023/04/15 05:11:01;;;;;;;11.95;5.82;;;8.90;82.80;;;;;;5114183;28;20024;-73
2023/04/15 05:13:26;;;;;;;9.38;5.35;;;8.90;83.00;;;;;;5114053;28;20053;-74
2023/04/15 05:15:52;;;;;;;9.35;5.57;;;8.80;83.00;;;;;;5114073;28;20055;-73
2023/04/15 05:18:18;;;;;;;10.82;5.25;;;8.80;83.20;;;;;;5114000;28;20022;-73
2023/04/15 05:20:43;;;;;;;9.65;4.75;;;8.80;83.50;;;;;;5113048;28;20487;-73
2023/04/15 05:23:09;;;;;;;9.07;5.57;;;8.80;83.60;;;;;;5113967;28;20087;-73
2023/04/15 05:25:35;;;;;;;9.02;5.32;;;8.80;83.70;;;;;;5096066;28;20389;-74
2023/04/15 05:28:00;;;;;;;10.27;5.68;;;8.80;83.80;;;;;;5113825;28;20031;-74
2023/04/15 05:30:26;;;;;;;11.00;5.85;;;8.70;84.40;;;;;;5113870;28;20046;-73
2023/04/15 05:32:51;;;;;;;12.50;5.50;;;8.70;84.80;;;;;;5113859;28;20088;-74
2023/04/15 05:35:17;;;;;;;8.38;5.38;;;8.70;85.00;;;;;;5112755;28;20024;-74
2023/04/15 05:37:44;;;;;;;11.40;5.75;;;8.70;85.10;;;;;;5112750;28;20020;-73
2023/04/15 05:40:09;;;;;;;11.70;5.95;;;8.70;85.30;;;;;;5113757;28;20023;-73
2023/04/15 05:42:35;;;;;;;12.32;6.57;;;8.80;85.40;;;;;;5113717;28;20020;-72
2023/04/15 05:45:04;;;;;;;10.52;6.00;;;8.80;85.40;;;;;;5113740;28;20028;-72
2023/04/15 05:47:30;;;;;;;9.65;5.85;;;8.90;85.50;;;;;;5113657;28;20031;-72
2023/04/15 05:49:57;;;;;;;12.27;6.10;;;8.90;85.50;;;;;;5113312;28;20047;-72
2023/04/15 05:52:23;;;;;;;11.43;6.57;;;9.00;85.40;;;;;;5113561;28;20492;-72
2023/04/15 05:54:49;;;;;;;9.98;6.15;;;9.10;85.40;;;;;;5113692;28;20042;-72
2023/04/15 05:57:15;;;;;;;11.43;5.43;;;9.10;85.30;;;;;;5095696;28;20028;-72
2023/04/15 05:59:41;;;;;;;11.93;5.95;;;9.20;85.30;;;;;;5112850;28;20040;-73
2023/04/15 06:02:07;;;;;;;12.77;6.22;;;9.20;85.40;;;;;;5113456;28;20026;-72
2023/04/15 06:04:32;;;;;;;12.50;6.55;;;9.30;85.60;;;;;;5113326;28;20024;-72
2023/04/15 06:06:58;;;;;;;11.00;6.45;;;9.40;85.50;;;;;;5113449;28;20028;-72
2023/04/15 06:09:24;;;;;;;11.32;6.63;;;9.40;85.70;;;;;;5112480;28;20047;-72
2023/04/15 06:11:50;;;;;;;13.63;6.55;;;9.40;85.90;;;;;;5112414;28;20080;-72
2023/04/15 06:14:16;;;;;;;11.02;6.45;;;9.40;86.10;;;;;;5113397;28;20028;-72
2023/04/15 06:16:42;;;;;;;13.18;6.68;;;9.40;85.90;;;;;;5113340;28;20033;-72
2023/04/15 06:19:07;;;;;;;11.50;6.32;;;9.40;86.00;;;;;;5113324;28;20031;-72
2023/04/15 06:21:33;;;;;;;12.43;6.70;;;9.50;86.50;;;;;;5095540;28;20020;-73
2023/04/15 06:24:00;;;;;;;14.43;7.22;;;9.50;86.20;;;;;;5112343;28;20088;-74
2023/04/15 06:26:26;;;;;;;13.40;6.95;;;9.50;86.40;;;;;;5113272;28;20020;-74
2023/04/15 06:28:53;;;;;;;12.07;6.88;;;9.50;86.50;;;;;;5112165;28;20035;-74
2023/04/15 06:31:19;;;;;;;14.88;7.47;;;9.50;86.70;;;;;;5113245;28;20044;-73
2023/04/15 06:33:45;;;;;;;12.95;7.00;;;9.50;87.00;;;;;;5113107;28;20476;-72
2023/04/15 06:36:11;;;;;;;10.85;6.45;;;9.50;87.10;;;;;;5113195;28;20020;-73
2023/04/15 06:38:36;;;;;;;10.70;6.15;;;9.40;88.10;;;;;;5112225;28;20036;-74
2023/04/15 06:41:03;;;;;;;11.82;6.85;;;9.50;87.90;;;;;;5113129;28;20016;-73
2023/04/15 06:43:29;;;;;;;14.18;7.38;;;9.50;87.80;;;;;;5113091;28;20044;-72
2023/04/15 06:45:55;;;;;;;11.43;6.50;;;9.60;88.10;;;;;;5113101;28;20088;-73
2023/04/15 06:48:21;;;;;;;14.27;6.57;;;9.60;88.70;;;;;;5112129;28;20024;-73
2023/04/15 06:50:48;;;;;;;11.70;6.60;;;9.70;87.90;;;;;;5111916;28;20063;-73
2023/04/15 06:53:13;;;;;;;12.65;6.85;;;9.70;88.80;;;;;;5112920;28;20028;-73
2023/04/15 06:55:40;;;;;;;11.30;6.80;;;9.70;88.90;;;;;;5112902;28;20051;-73
2023/04/15 06:58:06;;;;;;;13.65;7.28;;;9.80;88.40;;;;;;5111951;28;20024;-73
2023/04/15 07:00:32;;;;;;;15.90;7.13;;;9.80;88.40;;;;;;5112955;28;20054;-72
2023/04/15 07:03:02;;;;;;;12.82;7.32;;;9.90;88.60;;;;;;5111904;28;20039;-73
2023/04/15 07:05:31;;;;;;;13.07;7.65;;;9.90;89.10;;;;;;5112784;28;20027;-73
2023/04/15 07:07:57;;;;;;;12.65;7.20;;;9.90;89.20;;;;;;5111932;28;20422;-73
2023/04/15 07:10:23;;;;;;;12.02;7.30;;;10.00;89.30;;;;;;5113762;28;20028;-73
2023/04/15 07:12:49;;;;;;;11.50;6.47;;;10.00;89.30;;;;;;5116448;28;20024;-73
2023/04/15 07:15:15;;;;;;;11.80;6.75;;;10.10;89.50;;;;;;5116425;28;20016;-73
2023/04/15 07:17:42;;;;;;;14.43;7.25;;;10.10;89.50;;;;;;5116414;28;20024;-73
2023/04/15 07:20:08;;;;;;;15.05;7.55;;;10.20;89.90;;;;;;5116339;28;20023;-73
2023/04/15 07:22:33;;;;;;;13.98;7.68;;;10.20;90.10;;;;;;5116291;28;20032;-73
2023/04/15 07:24:59;;;;;;;13.35;7.10;;;10.20;90.20;;;;;;5115333;28;20070;-73
2023/04/15 07:27:26;;;;;;;13.90;7.47;;;10.20;90.30;;;;;;5116237;28;20012;-73
2023/04/15 07:29:52;;;;;;;14.48;7.10;;;10.30;90.50;;;;;;5116188;28;20043;-73
2023/04/15 07:32:18;;;;;;;15.57;7.55;;;10.30;90.40;;;;;;5115102;28;20028;-73
2023/04/15 07:34:43;;;;;;;15.40;6.65;;;10.40;90.20;;;;;;5115985;28;20053;-73
2023/04/15 07:37:09;;;;;;;13.05;6.97;;;10.40;90.30;;;;;;5115043;28;20020;-73
2023/04/15 07:39:36;;;;;;;12.07;6.10;;;10.40;90.10;;;;;;5115953;28;20073;-73
2023/04/15 07:42:02;;;;;;;12.20;6.68;;;10.40;89.80;;;;;;5115891;28;20016;-73
2023/04/15 07:44:29;;;;;;;12.15;6.38;;;10.40;89.40;;;;;;5115026;28;20028;-73
2023/04/15 07:46:55;;;;;;;13.95;6.90;;;10.50;89.60;;;;;;5115847;28;20020;-73
2023/04/15 07:49:21;;;;;;;11.75;6.60;;;10.50;89.40;;;;;;5115605;28;20051;-73
2023/04/15 07:51:47;;;;;;;15.75;7.00;;;10.50;89.10;;;;;;5115691;28;20032;-73
2023/04/15 07:54:13;;;;;;;12.48;7.30;;;10.60;88.80;;;;;;5115693;28;20020;-73
2023/04/15 07:56:40;;;;;;;11.88;6.72;;;10.70;88.90;;;;;;5115656;28;20012;-73
2023/04/15 07:59:05;;;;;;;15.88;7.50;;;10.70;88.90;;;;;;5115717;28;20024;-73
2023/04/15 08:01:31;;;;;;;11.40;6.68;;;10.70;88.60;;;;;;5115559;28;20020;-73
2023/04/15 08:03:58;;;;;;;11.77;7.15;;;10.80;88.50;;;;;;5115465;28;20088;-73
2023/04/15 08:06:24;;;;;;;10.20;6.35;;;10.70;88.60;;;;;;5115475;28;20031;-73
2023/04/15 08:08:49;;;;;;;12.75;6.85;;;10.70;88.60;;;;;;5114479;28;20024;-73
2023/04/15 08:11:15;;;;;;;11.05;6.53;;;10.80;88.50;;;;;;5115278;28;20020;-73
2023/04/15 08:13:41;;;;;;;10.15;6.10;;;10.80;88.70;;;;;;5114352;28;20021;-73
2023/04/15 08:16:33;;;;;;;11.27;6.50;;;10.80;88.50;;;;;;5115370;28;20032;-73
2023/04/15 08:18:59;;;;;;;10.43;6.03;;;10.90;89.00;;;;;;5111471;28;20042;-73
2023/04/15 08:21:24;;;;;;;8.95;5.05;;;10.90;88.20;;;;;;5114963;28;20032;-73
2023/04/15 08:23:51;;;;;;;9.65;5.15;;;11.00;88.40;;;;;;5114615;28;20084;-73
2023/04/15 08:26:23;;;;;;;11.70;5.45;;;11.00;87.70;;;;;;5114134;28;20408;-73
2023/04/15 08:28:49;;;;;;;10.45;5.22;;;11.10;87.50;;;;;;5115003;28;20028;-73
2023/04/15 08:31:15;;;;;;;9.93;4.85;;;11.20;87.30;;;;;;5113947;28;20027;-73
2023/04/15 08:33:41;;;;;;;10.23;5.10;;;11.30;87.30;;;;;;5114752;28;20036;-73
2023/04/15 08:36:08;;;;;;;10.48;5.82;;;11.40;87.20;;;;;;5114940;28;20024;-73
2023/04/15 08:38:35;;;;;;;10.20;5.95;;;11.50;87.70;;;;;;5113760;28;20027;-73
2023/04/15 08:41:07;;;;;;;8.80;4.72;;;11.60;86.60;;;;;;5114762;28;20030;-73
2023/04/15 08:43:43;;;;;;;8.82;5.05;;;11.60;85.70;;;;;;5114844;28;20023;-73
2023/04/15 08:46:09;;;;;;;8.77;4.97;;;11.70;84.90;;;;;;5114727;28;20039;-73
2023/04/15 08:48:38;;;;;;;8.80;4.53;;;11.80;85.50;;;;;;5114433;28;20097;-73
2023/04/15 08:51:04;;;;;;;8.85;5.13;;;11.80;84.90;;;;;;5096767;28;20055;-73
2023/04/15 08:53:30;;;;;;;7.70;4.55;;;11.80;84.20;;;;;;5096764;28;20046;-73
2023/04/15 08:55:58;;;;;;;7.20;4.38;;;11.90;83.70;;;;;;5113625;28;20020;-73
2023/04/15 08:58:25;;;;;;;8.20;4.43;;;12.00;83.70;;;;;;5114351;28;20024;-73
2023/04/15 09:00:50;;;;;;;8.65;4.55;;;12.00;84.20;;;;;;5114389;28;20024;-73
2023/04/15 09:03:16;;;;;;;7.85;4.35;;;12.10;84.30;;;;;;5114378;28;20053;-73
2023/04/15 09:05:42;;;;;;;9.25;4.60;;;12.10;83.70;;;;;;5114339;28;20032;-74
2023/04/15 09:08:08;;;;;;;7.93;4.80;;;12.20;83.60;;;;;;5113236;28;20020;-74
2023/04/15 09:10:34;;;;;;;6.95;4.45;;;12.30;83.50;;;;;;5113195;28;20032;-74
2023/04/15 09:13:00;;;;;;;6.85;4.30;;;12.30;83.20;;;;;;5096195;28;20035;-73
2023/04/15 09:15:28;;;;;;;8.57;4.53;;;12.40;83.70;;;;;;5114175;28;20027;-73
2023/04/15 09:17:54;;;;;;;6.80;3.95;;;12.50;83.00;;;;;;5114117;28;20088;-73
2023/04/15 09:20:20;;;;;;;9.30;5.25;;;12.50;81.40;;;;;;5113951;28;20016;-73
2023/04/15 09:22:47;;;;;;;7.55;3.72;;;12.40;81.40;;;;;;5114132;28;20031;-73
2023/04/15 09:25:23;;;;;;;6.53;4.22;;;12.50;81.60;;;;;;5112909;28;20387;-73
2023/04/15 09:27:49;;;;;;;6.60;3.83;;;12.50;80.10;;;;;;5113906;28;20020;-73
2023/04/15 09:30:16;;;;;;;7.15;4.50;;;12.40;80.90;;;;;;5113883;28;20016;-73
2023/04/15 09:32:53;;;;;;;6.60;4.35;;;12.50;80.30;;;;;;5096038;28;20021;-73
2023/04/15 09:35:21;;;;;;;8.80;5.40;;;12.50;80.30;;;;;;5112855;28;20076;-73
2023/04/15 09:37:47;;;;;;;7.20;4.05;;;12.60;81.30;;;;;;5113789;28;20084;-73
2023/04/15 09:40:13;;;;;;;5.80;3.70;;;12.60;80.70;;;;;;5113864;28;20033;-73
2023/04/15 09:42:55;;;;;;;3.95;2.70;;;12.70;79.80;;;;;;5112647;28;20020;-73
2023/04/15 09:45:21;;;;;;;6.35;3.65;;;12.70;79.40;;;;;;5112774;28;20042;-73
2023/04/15 09:47:47;;;;;;;7.57;3.70;;;12.80;78.70;;;;;;5113527;28;20036;-73
2023/04/15 09:50:14;;;;;;;6.70;3.45;;;12.80;78.80;;;;;;5113338;28;20055;-74
2023/04/15 09:52:43;;;;;;;4.35;2.72;;;12.90;78.90;;;;;;5113531;28;20032;-73
2023/04/15 09:55:10;;;;;;;5.30;3.53;;;12.90;78.90;;;;;;5113566;28;20054;-73
2023/04/15 09:57:36;;;;;;;6.95;5.25;;;13.00;78.40;;;;;;5113537;28;20039;-73
2023/04/15 10:00:10;;;;;;;4.18;2.50;;;13.00;77.80;;;;;;5113630;28;20024;-73
2023/04/15 10:02:47;;;;;;;3.65;2.42;;;13.10;77.20;;;;;;5112523;28;20032;-73
2023/04/15 10:05:16;;;;;;;6.35;3.53;;;13.10;76.90;;;;;;5113538;28;20476;-73
2023/04/15 10:07:42;;;;;;;5.22;2.70;;;13.30;77.60;;;;;;5112503;28;20058;-73
2023/04/15 10:10:09;;;;;;;4.30;3.00;;;13.40;78.10;;;;;;5113407;28;20027;-73
2023/04/15 10:12:38;;;;;;;6.43;4.65;;;13.40;77.90;;;;;;5113392;28;20028;-73
2023/04/15 10:15:05;;;;;;;7.40;5.13;;;13.50;77.60;;;;;;5112339;28;20016;-73
2023/04/15 10:17:34;;;;;;;5.97;3.95;;;13.60;76.40;;;;;;5113377;28;20396;-73
2023/04/15 10:20:04;;;;;;;6.03;3.22;;;13.60;76.50;;;;;;5113321;28;20036;-74
2023/04/15 10:22:30;;;;;;;5.75;4.10;;;13.70;76.60;;;;;;5113317;28;20028;-74
2023/04/15 10:24:57;;;;;;;7.43;3.50;;;13.70;77.20;;;;;;5112306;28;20020;-74
2023/04/15 10:27:23;;;;;;;4.30;2.72;;;13.80;76.80;;;;;;5113305;28;20024;-74
2023/04/15 10:29:50;;;;;;;5.80;3.90;;;13.90;76.40;;;;;;5112388;28;20028;-73
2023/04/15 10:32:20;;;;;;;4.57;2.88;;;13.90;74.90;;;;;;5112329;28;20040;-73
2023/04/15 10:34:47;;;;;;;5.47;3.28;;;14.00;75.10;;;;;;5113079;28;20012;-73
2023/04/15 10:37:32;;;;;;;3.50;2.40;;;14.00;74.90;;;;;;5112241;28;20047;-73
2023/04/15 10:39:59;;;;;;;5.25;2.60;;;14.10;74.20;;;;;;5112223;28;20067;-74
2023/04/15 10:42:34;;;;;;;3.72;2.45;;;14.10;74.00;;;;;;5113108;28;20036;-73
2023/04/15 10:44:59;;;;;;;7.03;4.18;;;14.10;73.90;;;;;;5113464;28;20065;-73
2023/04/15 10:47:25;;;;;;;6.53;3.65;;;14.10;73.90;;;;;;5117114;28;20028;-74
2023/04/15 10:49:56;;;;;;;5.95;3.80;;;14.10;74.80;;;;;;5116566;28;20072;-73
2023/04/15 10:52:24;;;;;;;6.38;2.85;;;14.20;75.30;;;;;;5116866;28;20020;-73
2023/04/15 10:55:21;;;;;;;5.32;3.50;;;14.30;75.30;;;;;;5116825;28;20083;-74
2023/04/15 10:57:51;;;;;;;4.50;2.85;;;14.40;74.90;;;;;;5116152;28;20088;-73
2023/04/15 11:00:18;;;;;;;7.07;3.88;;;14.30;73.80;;;;;;5116818;28;20024;-73
2023/04/15 11:02:47;;;;;;;6.20;3.70;;;14.30;73.50;;;;;;5116746;28;20098;-73
2023/04/15 11:05:14;;;;;;;4.72;2.35;;;14.30;73.10;;;;;;5116665;28;20028;-73
2023/04/15 11:07:50;;;;;;;5.85;3.20;;;14.30;73.40;;;;;;5116540;28;20043;-74
2023/04/15 11:10:24;;;;;;;5.70;2.67;;;14.40;73.00;;;;;;5116607;28;20027;-73
2023/04/15 11:12:52;;;;;;;4.57;2.35;;;14.40;72.70;;;;;;5115499;28;20491;-73
2023/04/15 11:15:30;;;;;;;3.45;2.17;;;14.40;72.70;;;;;;5115589;28;20028;-73
2023/04/15 11:17:57;;;;;;;3.22;2.13;;;14.40;72.50;;;;;;5116403;28;20076;-73
2023/04/15 11:20:23;;;;;;;4.43;2.60;;;14.40;72.20;;;;;;5116530;28;20039;-73
2023/04/15 11:22:53;;;;;;;2.63;2.03;;;14.40;72.10;;;;;;5115379;28;20024;-74
2023/04/15 11:25:23;;;;;;;3.47;2.08;;;14.40;71.40;;;;;;5116297;28;20021;-74
2023/04/15 11:27:49;;;;;;;4.07;2.40;;;14.50;72.20;;;;;;5116214;28;20024;-74
2023/04/15 11:30:35;;;;;;;5.00;2.58;;;14.50;72.80;;;;;;5116204;28;20058;-73
2023/04/15 11:33:07;;;;;;;4.05;2.22;;;14.60;73.30;;;;;;5115050;28;20393;-74
2023/04/15 11:35:34;;;;;;;3.93;2.20;;;14.60;72.70;;;;;;5116147;28;20016;-73
2023/04/15 11:38:10;;;;;;;3.35;2.30;;;14.70;73.10;;;;;;5116045;28;20258;-73
2023/04/15 11:40:37;;;;;;;3.20;2.00;;;14.80;72.10;;;;;;5116153;28;20035;-73
2023/04/15 11:43:14;;;;;;;5.68;2.30;;;14.90;72.50;;;;;;5115936;28;20053;-73
2023/04/15 11:45:53;;;;;;;5.53;2.22;;;15.00;72.20;;;;;;5115934;28;20366;-74
2023/04/15 11:48:21;;;;;;;3.30;2.13;;;15.10;71.80;;;;;;5115890;28;20032;-74
2023/04/15 11:50:53;;;;;;;4.00;2.65;;;15.20;72.00;;;;;;5115590;28;20036;-74
2023/04/15 11:53:18;;;;;;;5.65;2.17;;;15.20;70.30;;;;;;5115707;28;20063;-73
2023/04/15 11:55:46;;;;;;;4.40;2.55;;;15.20;71.50;;;;;;5115651;28;20024;-73
2023/04/15 11:58:20;;;;;;;3.55;2.20;;;15.30;71.70;;;;;;5114587;28;20024;-73
2023/04/15 12:00:59;;;;;;;3.53;2.20;;;15.40;72.00;;;;;;5115589;28;20024;-74
2023/04/15 12:03:29;;;;;;;2.95;1.88;;;15.40;71.10;;;;;;5114545;28;20043;-74
2023/04/15 12:06:22;;;;;;;3.25;2.00;;;15.50;70.80;;;;;;5115517;28;20069;-73
2023/04/15 12:08:54;;;;;;;3.83;2.03;;;15.50;70.30;;;;;;5114425;28;20054;-73
2023/04/15 12:11:26;;;;;;;2.88;2.10;;;15.60;70.80;;;;;;5115391;28;20079;-73
2023/04/15 12:13:55;;;;;;;3.83;1.90;;;15.80;70.30;;;;;;5115243;28;20479;-74
2023/04/15 12:16:22;;;;;;;6.63;3.97;;;15.90;71.50;;;;;;5115385;28;20258;-74
2023/04/15 12:18:57;;;;;;;5.40;2.70;;;15.90;69.00;;;;;;5115400;28;20031;-73
2023/04/15 12:21:32;;;;;;;3.65;2.10;;;15.90;68.20;;;;;;5114263;28;20024;-74
2023/04/15 12:24:02;;;;;;;5.20;2.10;;;15.90;68.90;;;;;;5115195;28;20024;-74
2023/04/15 12:26:30;;;;;;;3.20;1.90;;;16.00;69.30;;;;;;5115118;28;20443;-73
2023/04/15 12:29:09;;;;;;;4.25;1.73;;;15.90;67.10;;;;;;5115070;28;20036;-74
2023/04/15 12:31:36;;;;;;;3.88;2.28;;;15.90;66.90;;;;;;5114864;28;20048;-74
2023/04/15 12:34:06;;;;;;;2.53;1.63;;;15.90;67.70;;;;;;5113800;28;20024;-74
2023/04/15 12:36:35;;;;;;;2.22;1.58;;;15.80;66.70;;;;;;5114863;28;20020;-74
2023/04/15 12:39:05;;;;;;;3.28;2.08;;;15.80;67.10;;;;;;5114787;28;20088;-73
2023/04/15 12:41:31;;;;;;;2.15;1.60;;;15.80;67.10;;;;;;5114808;28;20044;-73
2023/04/15 12:43:57;;;;;;;3.55;1.90;;;15.80;66.50;;;;;;5113725;28;20028;-73
2023/04/15 12:46:23;;;;;;;4.60;1.80;;;15.80;66.30;;;;;;5114684;28;20062;-73
2023/04/15 12:48:50;;;;;;;2.80;1.50;;;15.80;68.00;;;;;;5114457;28;20031;-73